RA67307 UWKS-ULKK
Flight info
| Callsign | RA67307 |
|---|---|
| Flight time | 1h 3m |
| Altitude | 32000 |
| Route | N0480F320 INKUG DCT RANUD DCT AMTAL DCT UGMIS DCT GIGON DCT VELUS DCT RONRA |
| Aircraft | C500/M-VGDW/C |
Departure
| Time | 2026-05-05 22:24 |
|---|---|
| Airport | Cheboksary Airport (UWKS) |
Arrival
| Time | 2026-05-05 23:27 |
|---|---|
| Airport | Kotlas Airport (ULKK) |
| Time | Latitude | Longitude | Altitude | Speed | Heading |
|---|---|---|---|---|---|
| 2026-05-05 22:11 | 56.08400 | 47.32086 | 563 ft | 0 kts | 173° |
| 2026-05-05 22:21 | 56.08399 | 47.32086 | 562 ft | 1 kts | 173° |
| 2026-05-05 22:22 | 56.08370 | 47.32154 | 557 ft | 15 kts | 83° |
| 2026-05-05 22:22 | 56.08464 | 47.32373 | 557 ft | 28 kts | 54° |
| 2026-05-05 22:22 | 56.08602 | 47.32727 | 558 ft | 40 kts | 53° |
| 2026-05-05 22:22 | 56.08748 | 47.33200 | 565 ft | 48 kts | 72° |
| 2026-05-05 22:23 | 56.08862 | 47.33816 | 561 ft | 56 kts | 72° |
| 2026-05-05 22:23 | 56.08990 | 47.34513 | 558 ft | 63 kts | 72° |
| 2026-05-05 22:23 | 56.09062 | 47.34833 | 557 ft | 5 kts | 281° |
| 2026-05-05 22:23 | 56.08962 | 47.34365 | 559 ft | 93 kts | 251° |
| 2026-05-05 22:24 | 56.08678 | 47.32809 | 940 ft | 156 kts | 251° |
| 2026-05-05 22:24 | 56.08169 | 47.30950 | 1905 ft | 185 kts | 230° |
| 2026-05-05 22:24 | 56.07025 | 47.29582 | 2909 ft | 214 kts | 202° |
| 2026-05-05 22:24 | 56.05466 | 47.29596 | 3911 ft | 236 kts | 166° |
| 2026-05-05 22:25 | 56.04163 | 47.31327 | 5305 ft | 242 kts | 129° |
| 2026-05-05 22:25 | 56.03612 | 47.34197 | 6418 ft | 254 kts | 90° |
| 2026-05-05 22:25 | 56.04173 | 47.37161 | 7542 ft | 254 kts | 50° |
| 2026-05-05 22:25 | 56.05576 | 47.38940 | 8661 ft | 250 kts | 18° |
| 2026-05-05 22:26 | 56.07243 | 47.39940 | 9791 ft | 254 kts | 16° |
| 2026-05-05 22:26 | 56.08906 | 47.41115 | 10846 ft | 258 kts | 20° |
| 2026-05-05 22:26 | 56.10600 | 47.41926 | 11900 ft | 255 kts | 356° |
| 2026-05-05 22:26 | 56.12339 | 47.41369 | 12985 ft | 254 kts | 340° |
| 2026-05-05 22:27 | 56.14019 | 47.40389 | 13999 ft | 258 kts | 338° |
| 2026-05-05 22:27 | 56.15718 | 47.39286 | 14941 ft | 261 kts | 338° |
| 2026-05-05 22:27 | 56.17452 | 47.38193 | 15889 ft | 265 kts | 338° |
| 2026-05-05 22:27 | 56.19187 | 47.37124 | 16817 ft | 268 kts | 338° |
| 2026-05-05 22:28 | 56.20979 | 47.36021 | 17771 ft | 272 kts | 338° |
| 2026-05-05 22:28 | 56.22767 | 47.34914 | 18645 ft | 276 kts | 338° |
| 2026-05-05 22:28 | 56.24592 | 47.33777 | 19504 ft | 279 kts | 338° |
| 2026-05-05 22:28 | 56.26445 | 47.32624 | 20382 ft | 283 kts | 337° |
| 2026-05-05 22:29 | 56.28323 | 47.31459 | 21274 ft | 287 kts | 337° |
| 2026-05-05 22:29 | 56.30221 | 47.30273 | 22174 ft | 291 kts | 337° |
| 2026-05-05 22:29 | 56.32127 | 47.29088 | 23079 ft | 295 kts | 337° |
| 2026-05-05 22:29 | 56.34088 | 47.27863 | 23895 ft | 299 kts | 337° |
| 2026-05-05 22:30 | 56.36045 | 47.26638 | 24643 ft | 301 kts | 337° |
| 2026-05-05 22:30 | 56.38063 | 47.25468 | 25374 ft | 307 kts | 344° |
| 2026-05-05 22:30 | 56.40208 | 47.25368 | 26074 ft | 316 kts | 359° |
| 2026-05-05 22:30 | 56.42419 | 47.25654 | 26717 ft | 317 kts | 0° |
| 2026-05-05 22:31 | 56.44625 | 47.26007 | 27008 ft | 318 kts | 0° |
| 2026-05-05 22:31 | 56.46833 | 47.26339 | 27273 ft | 323 kts | 360° |
| 2026-05-05 22:31 | 56.49100 | 47.26649 | 27542 ft | 327 kts | 359° |
| 2026-05-05 22:31 | 56.51363 | 47.26965 | 27813 ft | 330 kts | 360° |
| 2026-05-05 22:32 | 56.53676 | 47.27294 | 28095 ft | 333 kts | 360° |
| 2026-05-05 22:32 | 56.55975 | 47.27626 | 28366 ft | 336 kts | 360° |
| 2026-05-05 22:32 | 56.58315 | 47.27961 | 28649 ft | 338 kts | 360° |
| 2026-05-05 22:32 | 56.60668 | 47.28294 | 28934 ft | 339 kts | 360° |
| 2026-05-05 22:33 | 56.63035 | 47.28635 | 29217 ft | 340 kts | 360° |
| 2026-05-05 22:33 | 56.65383 | 47.28970 | 29506 ft | 341 kts | 360° |
| 2026-05-05 22:33 | 56.67731 | 47.29307 | 29798 ft | 342 kts | 359° |
| 2026-05-05 22:33 | 56.70113 | 47.29650 | 30056 ft | 342 kts | 360° |
| 2026-05-05 22:34 | 56.72473 | 47.29988 | 30299 ft | 342 kts | 359° |
| 2026-05-05 22:34 | 56.74851 | 47.30332 | 30553 ft | 342 kts | 359° |
| 2026-05-05 22:34 | 56.77241 | 47.30677 | 30799 ft | 342 kts | 359° |
| 2026-05-05 22:34 | 56.79581 | 47.31011 | 31052 ft | 341 kts | 359° |
| 2026-05-05 22:35 | 56.81953 | 47.31357 | 31304 ft | 341 kts | 359° |
| 2026-05-05 22:35 | 56.84319 | 47.31699 | 31561 ft | 340 kts | 359° |
| 2026-05-05 22:35 | 56.86658 | 47.32036 | 31755 ft | 341 kts | 359° |
| 2026-05-05 22:36 | 56.90656 | 47.32612 | 31833 ft | 349 kts | 359° |
| 2026-05-05 22:36 | 56.95556 | 47.33325 | 31850 ft | 360 kts | 360° |
| 2026-05-05 22:37 | 57.00635 | 47.34067 | 31851 ft | 371 kts | 360° |
| 2026-05-05 22:37 | 57.05856 | 47.34833 | 31848 ft | 381 kts | 360° |
| 2026-05-05 22:38 | 57.11184 | 47.35614 | 31846 ft | 388 kts | 360° |
| 2026-05-05 22:38 | 57.16597 | 47.36410 | 31852 ft | 393 kts | 360° |
| 2026-05-05 22:39 | 57.22089 | 47.37218 | 31846 ft | 397 kts | 360° |
| 2026-05-05 22:39 | 57.27602 | 47.38011 | 31846 ft | 398 kts | 358° |
| 2026-05-05 22:40 | 57.33132 | 47.38296 | 31847 ft | 399 kts | 357° |
| 2026-05-05 22:40 | 57.38689 | 47.38637 | 31847 ft | 401 kts | 357° |
| 2026-05-05 22:41 | 57.44293 | 47.38947 | 31849 ft | 402 kts | 357° |
| 2026-05-05 22:41 | 57.49853 | 47.39269 | 31845 ft | 403 kts | 357° |
| 2026-05-05 22:42 | 57.55472 | 47.39591 | 31840 ft | 403 kts | 357° |
| 2026-05-05 22:42 | 57.61089 | 47.39918 | 31844 ft | 404 kts | 357° |
| 2026-05-05 22:43 | 57.66679 | 47.40243 | 31843 ft | 404 kts | 357° |
| 2026-05-05 22:43 | 57.72286 | 47.40571 | 31842 ft | 404 kts | 357° |
| 2026-05-05 22:44 | 57.77899 | 47.40898 | 31844 ft | 404 kts | 357° |
| 2026-05-05 22:44 | 57.83523 | 47.41225 | 31843 ft | 404 kts | 357° |
| 2026-05-05 22:45 | 57.89137 | 47.41553 | 31843 ft | 404 kts | 357° |
| 2026-05-05 22:45 | 57.94745 | 47.41884 | 31842 ft | 404 kts | 357° |
| 2026-05-05 22:46 | 58.00383 | 47.42219 | 31842 ft | 404 kts | 357° |
| 2026-05-05 22:46 | 58.05979 | 47.42552 | 31842 ft | 404 kts | 357° |
| 2026-05-05 22:47 | 58.11610 | 47.42888 | 31842 ft | 404 kts | 357° |
| 2026-05-05 22:47 | 58.17217 | 47.43220 | 31839 ft | 404 kts | 357° |
| 2026-05-05 22:48 | 58.22850 | 47.43556 | 31840 ft | 404 kts | 357° |
| 2026-05-05 22:48 | 58.28437 | 47.43423 | 31839 ft | 401 kts | 353° |
| 2026-05-05 22:49 | 58.33999 | 47.43082 | 31840 ft | 401 kts | 354° |
| 2026-05-05 22:49 | 58.39560 | 47.42673 | 31834 ft | 401 kts | 353° |
| 2026-05-05 22:50 | 58.45157 | 47.42280 | 31837 ft | 401 kts | 353° |
| 2026-05-05 22:50 | 58.50722 | 47.41883 | 31838 ft | 401 kts | 353° |
| 2026-05-05 22:51 | 58.56267 | 47.41485 | 31834 ft | 401 kts | 353° |
| 2026-05-05 22:51 | 58.61861 | 47.41082 | 31837 ft | 401 kts | 353° |
| 2026-05-05 22:52 | 58.67413 | 47.40681 | 31833 ft | 400 kts | 353° |
| 2026-05-05 22:52 | 58.72973 | 47.40280 | 31836 ft | 400 kts | 353° |
| 2026-05-05 22:53 | 58.78522 | 47.39880 | 31838 ft | 400 kts | 353° |
| 2026-05-05 22:53 | 58.84097 | 47.39476 | 31835 ft | 400 kts | 353° |
| 2026-05-05 22:54 | 58.89666 | 47.39071 | 31835 ft | 400 kts | 353° |
| 2026-05-05 22:54 | 58.95245 | 47.38662 | 31834 ft | 400 kts | 353° |
| 2026-05-05 22:55 | 59.00790 | 47.38252 | 31836 ft | 400 kts | 353° |
| 2026-05-05 22:55 | 59.06319 | 47.37844 | 31837 ft | 399 kts | 353° |
| 2026-05-05 22:56 | 59.11885 | 47.37434 | 31833 ft | 399 kts | 353° |
| 2026-05-05 22:56 | 59.17406 | 47.37028 | 31840 ft | 399 kts | 353° |
| 2026-05-05 22:57 | 59.22907 | 47.36012 | 31834 ft | 394 kts | 345° |
| 2026-05-05 22:57 | 59.28283 | 47.34229 | 31859 ft | 395 kts | 348° |
| 2026-05-05 22:58 | 59.33787 | 47.33291 | 31831 ft | 399 kts | 354° |
| 2026-05-05 22:58 | 59.39351 | 47.33890 | 31790 ft | 405 kts | 3° |
| 2026-05-05 22:59 | 59.44874 | 47.36614 | 31779 ft | 413 kts | 15° |
| 2026-05-05 22:59 | 59.50284 | 47.39855 | 31813 ft | 403 kts | 2° |
| 2026-05-05 23:00 | 59.58379 | 47.37960 | 31809 ft | 388 kts | 335° |
| 2026-05-05 23:00 | 59.63411 | 47.34249 | 31813 ft | 389 kts | 339° |
| 2026-05-05 23:01 | 59.68620 | 47.31321 | 31473 ft | 387 kts | 339° |
| 2026-05-05 23:01 | 59.71139 | 47.29750 | 31088 ft | 372 kts | 338° |
| 2026-05-05 23:01 | 59.73588 | 47.28193 | 30704 ft | 364 kts | 338° |
| 2026-05-05 23:02 | 59.75991 | 47.26706 | 30306 ft | 367 kts | 339° |
| 2026-05-05 23:02 | 59.78456 | 47.25213 | 29886 ft | 371 kts | 339° |
| 2026-05-05 23:02 | 59.80913 | 47.23701 | 29404 ft | 374 kts | 338° |
| 2026-05-05 23:02 | 59.83410 | 47.22157 | 28927 ft | 377 kts | 338° |
| 2026-05-05 23:03 | 59.85917 | 47.20601 | 28460 ft | 379 kts | 339° |
| 2026-05-05 23:03 | 59.88446 | 47.19040 | 27997 ft | 381 kts | 339° |
| 2026-05-05 23:03 | 59.90990 | 47.17466 | 27548 ft | 383 kts | 338° |
| 2026-05-05 23:03 | 59.93545 | 47.15875 | 27102 ft | 384 kts | 338° |
| 2026-05-05 23:04 | 59.96073 | 47.14303 | 26665 ft | 385 kts | 338° |
| 2026-05-05 23:04 | 59.98645 | 47.12700 | 26227 ft | 386 kts | 338° |
| 2026-05-05 23:04 | 60.01219 | 47.11097 | 25802 ft | 386 kts | 338° |
| 2026-05-05 23:04 | 60.03771 | 47.09500 | 25385 ft | 387 kts | 338° |
| 2026-05-05 23:05 | 60.06304 | 47.07916 | 24975 ft | 381 kts | 338° |
| 2026-05-05 23:05 | 60.08823 | 47.06339 | 24572 ft | 375 kts | 338° |
| 2026-05-05 23:05 | 60.11302 | 47.04780 | 24160 ft | 371 kts | 338° |
| 2026-05-05 23:05 | 60.13769 | 47.03226 | 23736 ft | 369 kts | 338° |
| 2026-05-05 23:06 | 60.16074 | 47.01227 | 23305 ft | 362 kts | 326° |
| 2026-05-05 23:06 | 60.18252 | 46.98701 | 22817 ft | 361 kts | 327° |
| 2026-05-05 23:06 | 60.20453 | 46.96260 | 22326 ft | 359 kts | 327° |
| 2026-05-05 23:06 | 60.22611 | 46.93838 | 21850 ft | 357 kts | 327° |
| 2026-05-05 23:07 | 60.24780 | 46.91363 | 21377 ft | 355 kts | 326° |
| 2026-05-05 23:07 | 60.26932 | 46.88920 | 20934 ft | 353 kts | 326° |
| 2026-05-05 23:07 | 60.29051 | 46.86510 | 20503 ft | 351 kts | 326° |
| 2026-05-05 23:07 | 60.31182 | 46.84094 | 20076 ft | 349 kts | 326° |
| 2026-05-05 23:08 | 60.33273 | 46.81707 | 19662 ft | 347 kts | 326° |
| 2026-05-05 23:08 | 60.35379 | 46.79305 | 19248 ft | 346 kts | 326° |
| 2026-05-05 23:08 | 60.37450 | 46.76937 | 18840 ft | 344 kts | 326° |
| 2026-05-05 23:08 | 60.39530 | 46.74555 | 18434 ft | 342 kts | 326° |
| 2026-05-05 23:09 | 60.41600 | 46.72186 | 18030 ft | 340 kts | 326° |
| 2026-05-05 23:09 | 60.43664 | 46.69812 | 17571 ft | 338 kts | 326° |
| 2026-05-05 23:09 | 60.45684 | 46.67495 | 17119 ft | 337 kts | 326° |
| 2026-05-05 23:09 | 60.47733 | 46.65130 | 16674 ft | 336 kts | 326° |
| 2026-05-05 23:10 | 60.49766 | 46.62794 | 16234 ft | 334 kts | 326° |
| 2026-05-05 23:10 | 60.51767 | 46.60475 | 15807 ft | 333 kts | 326° |
| 2026-05-05 23:10 | 60.53781 | 46.58152 | 15379 ft | 332 kts | 326° |
| 2026-05-05 23:10 | 60.55780 | 46.55832 | 14960 ft | 332 kts | 326° |
| 2026-05-05 23:11 | 60.57775 | 46.53525 | 14549 ft | 331 kts | 326° |
| 2026-05-05 23:11 | 60.59776 | 46.51197 | 14137 ft | 325 kts | 326° |
| 2026-05-05 23:11 | 60.61715 | 46.48951 | 13730 ft | 316 kts | 326° |
| 2026-05-05 23:11 | 60.63588 | 46.46765 | 13292 ft | 310 kts | 326° |
| 2026-05-05 23:12 | 60.65452 | 46.44590 | 12842 ft | 305 kts | 325° |
| 2026-05-05 23:12 | 60.67290 | 46.42444 | 12385 ft | 302 kts | 326° |
| 2026-05-05 23:12 | 60.69083 | 46.40345 | 11950 ft | 299 kts | 325° |
| 2026-05-05 23:12 | 60.70894 | 46.38230 | 11552 ft | 296 kts | 325° |
| 2026-05-05 23:13 | 60.72663 | 46.36147 | 11221 ft | 296 kts | 325° |
| 2026-05-05 23:13 | 60.74459 | 46.34056 | 10904 ft | 297 kts | 326° |
| 2026-05-05 23:13 | 60.76455 | 46.32755 | 10566 ft | 308 kts | 348° |
| 2026-05-05 23:13 | 60.78619 | 46.32929 | 10237 ft | 318 kts | 8° |
| 2026-05-05 23:14 | 60.80703 | 46.34375 | 9926 ft | 317 kts | 14° |
| 2026-05-05 23:14 | 60.82756 | 46.35861 | 9599 ft | 308 kts | 15° |
| 2026-05-05 23:14 | 60.84750 | 46.37373 | 9222 ft | 300 kts | 15° |
| 2026-05-05 23:14 | 60.86679 | 46.38790 | 8859 ft | 295 kts | 15° |
| 2026-05-05 23:15 | 60.88605 | 46.40199 | 8490 ft | 291 kts | 15° |
| 2026-05-05 23:15 | 60.90516 | 46.41596 | 8117 ft | 289 kts | 15° |
| 2026-05-05 23:15 | 60.92378 | 46.42979 | 7760 ft | 286 kts | 15° |
| 2026-05-05 23:15 | 60.94258 | 46.44362 | 7412 ft | 283 kts | 16° |
| 2026-05-05 23:16 | 60.96088 | 46.45724 | 7105 ft | 276 kts | 16° |
| 2026-05-05 23:16 | 60.97870 | 46.47059 | 6805 ft | 272 kts | 16° |
| 2026-05-05 23:16 | 60.99650 | 46.48381 | 6501 ft | 269 kts | 16° |
| 2026-05-05 23:16 | 61.01385 | 46.49674 | 6234 ft | 267 kts | 16° |
| 2026-05-05 23:17 | 61.03138 | 46.50963 | 5952 ft | 265 kts | 16° |
| 2026-05-05 23:17 | 61.04878 | 46.52243 | 5664 ft | 264 kts | 17° |
| 2026-05-05 23:17 | 61.06588 | 46.53542 | 5383 ft | 264 kts | 17° |
| 2026-05-05 23:17 | 61.08321 | 46.54849 | 5100 ft | 264 kts | 18° |
| 2026-05-05 23:18 | 61.10040 | 46.56132 | 4821 ft | 264 kts | 17° |
| 2026-05-05 23:18 | 61.11776 | 46.57422 | 4542 ft | 264 kts | 17° |
| 2026-05-05 23:18 | 61.13491 | 46.58681 | 4258 ft | 264 kts | 18° |
| 2026-05-05 23:18 | 61.15224 | 46.59941 | 3974 ft | 263 kts | 17° |
| 2026-05-05 23:19 | 61.16961 | 46.61184 | 3690 ft | 263 kts | 18° |
| 2026-05-05 23:19 | 61.18682 | 46.62458 | 3421 ft | 261 kts | 17° |
| 2026-05-05 23:19 | 61.20348 | 46.63780 | 3145 ft | 256 kts | 17° |
| 2026-05-05 23:19 | 61.21950 | 46.65100 | 3053 ft | 239 kts | 19° |
| 2026-05-05 23:20 | 61.23440 | 46.66458 | 3008 ft | 232 kts | 22° |
| 2026-05-05 23:20 | 61.24633 | 46.68710 | 2989 ft | 234 kts | 48° |
| 2026-05-05 23:20 | 61.25650 | 46.71326 | 2986 ft | 231 kts | 49° |
| 2026-05-05 23:20 | 61.26575 | 46.74025 | 2986 ft | 230 kts | 64° |
| 2026-05-05 23:21 | 61.26650 | 46.77275 | 2981 ft | 228 kts | 110° |
| 2026-05-05 23:21 | 61.25774 | 46.79982 | 2823 ft | 228 kts | 138° |
| 2026-05-05 23:21 | 61.24598 | 46.82189 | 2675 ft | 227 kts | 144° |
| 2026-05-05 23:21 | 61.23381 | 46.84269 | 2534 ft | 226 kts | 143° |
| 2026-05-05 23:22 | 61.22190 | 46.86346 | 2391 ft | 221 kts | 143° |
| 2026-05-05 23:22 | 61.21041 | 46.88346 | 2240 ft | 215 kts | 143° |
| 2026-05-05 23:22 | 61.19909 | 46.90312 | 2096 ft | 209 kts | 143° |
| 2026-05-05 23:22 | 61.18823 | 46.92274 | 1933 ft | 205 kts | 142° |
| 2026-05-05 23:23 | 61.17765 | 46.94191 | 1854 ft | 198 kts | 142° |
| 2026-05-05 23:23 | 61.16750 | 46.96052 | 1831 ft | 190 kts | 142° |
| 2026-05-05 23:23 | 61.15632 | 46.97281 | 1799 ft | 183 kts | 179° |
| 2026-05-05 23:23 | 61.14490 | 46.96267 | 1795 ft | 188 kts | 226° |
| 2026-05-05 23:24 | 61.14082 | 46.93695 | 1799 ft | 203 kts | 269° |
| 2026-05-05 23:24 | 61.14428 | 46.90822 | 1805 ft | 209 kts | 289° |
| 2026-05-05 23:24 | 61.15087 | 46.88109 | 1815 ft | 211 kts | 293° |
| 2026-05-05 23:24 | 61.15958 | 46.85633 | 1817 ft | 215 kts | 308° |
| 2026-05-05 23:25 | 61.16886 | 46.83328 | 1826 ft | 200 kts | 304° |
| 2026-05-05 23:25 | 61.17737 | 46.81150 | 1770 ft | 187 kts | 304° |
| 2026-05-05 23:25 | 61.18553 | 46.79164 | 1669 ft | 176 kts | 309° |
| 2026-05-05 23:25 | 61.19437 | 46.77498 | 1568 ft | 166 kts | 312° |
| 2026-05-05 23:26 | 61.20196 | 46.76086 | 1443 ft | 131 kts | 313° |
| 2026-05-05 23:26 | 61.20831 | 46.74926 | 1284 ft | 119 kts | 312° |
| 2026-05-05 23:26 | 61.21442 | 46.73787 | 1098 ft | 119 kts | 313° |
| 2026-05-05 23:26 | 61.22067 | 46.72640 | 764 ft | 119 kts | 316° |
| 2026-05-05 23:27 | 61.22675 | 46.71514 | 402 ft | 117 kts | 315° |
| 2026-05-05 23:27 | 61.23270 | 46.70446 | 200 ft | 102 kts | 316° |
| 2026-05-05 23:27 | 61.23633 | 46.69793 | 193 ft | 27 kts | 314° |
| 2026-05-05 23:27 | 61.23667 | 46.69721 | 196 ft | 1 kts | 84° |
| 2026-05-05 23:28 | 61.23653 | 46.69867 | 193 ft | 20 kts | 54° |
| 2026-05-05 23:28 | 61.23701 | 46.69981 | 196 ft | 11 kts | 48° |
| 2026-05-05 23:28 | 61.23686 | 46.70132 | 201 ft | 3 kts | 103° |
| 2026-05-05 23:28 | 61.23712 | 46.70157 | 197 ft | 4 kts | 317° |
| 2026-05-05 23:29 | 61.23719 | 46.70144 | 199 ft | 0 kts | 318° |
| 2026-05-05 23:30 | 61.22876 | 46.71265 | 550 ft | 252 kts | 316° |
| 2026-05-05 23:30 | 61.23686 | 46.69663 | 774 ft | 199 kts | 317° |
| 2026-05-05 23:30 | 61.24716 | 46.67639 | 1051 ft | 149 kts | 242° |
| 2026-05-05 23:30 | 61.23941 | 46.68258 | 565 ft | 155 kts | 100° |
| 2026-05-05 23:31 | 61.23564 | 46.70036 | 215 ft | 0 kts | 158° |